MyTimes logo

TIMES

Webb Imagery

24/02/2005

YMCA at Boroondara Aquathon Series - Race #9

(1.5km run / 250m swim) x3

(Click on competitor name to view personalised results)

Name
Race #
Category
Team Name
Time
(h:mm:ss)
Avg Speed
km/hr
OAll
Place
Cat
Place
NOORDHOFF Andrew#755Open Team0:28:01 11.2 11
WALPOLE Stuart#751Adult Male0:28:06 11.2 21
QUINN Mark#761Adult Male0:28:53 10.9 32
JENNER Steven#753Open Team0:30:47 10.2 42
THYNNE Chris#764Adult Male0:31:32 10 53
MITCHELL Mark#743Open Team0:31:48 9.9 63
ADAMSON Craig#750Adult Male0:32:15 9.8 74
RUDDICK Tony#760Adult Male0:33:12 9.5 85
STUTE Justin#746Adult Male0:34:16 9.2 96
CUTTIFORD Tim#757Open Team0:34:42 9.1 104
SOMERVILLE Michael#742Adult Male0:35:14 8.9 117
WIILIAMS Cassandra#762Adult Female0:35:22 8.9 121
WARNER Brigette#754Junior Team0:36:40 8.6 131
VARNEY John#763Adult Male0:37:15 8.5 148
WARNER Michael#759Open Team0:37:39 8.4 155
SMITH Andrew#756Adult Male0:37:54 8.3 169
BECK Lauren#741Junior Female0:38:27 8.2 171
FARRELLY Philip#758Adult Male0:38:45 8.1 1810
TILLEY Vanessa#732Open Team0:39:04 8.1 196
MAHONEY Travis#720Junior Team0:39:14 8 202
MUMMERY Glenn#744Adult Male0:39:44 7.9 2111
PEARCE Cory#748Adult Male0:40:16 7.8 2212
FARRELLY Elissa#752Adult Female0:40:21 7.8 232
ZELEZNIKOW John#745Open Team0:42:07 7.5 247
PAINTER Rachel#747Junior Female0:42:15 7.5 252
NORQUAY Melissa#735Adult Female0:46:04 6.8 263
SPENCER Kirri#736Adult Female0:48:03 6.6 274
KENDRICK John#733Adult Male0:49:19 6.4 2813
SOUVANNAVENG Anuhak#765Junior Male0:27:52 11.3DCO0
KREUZER Chris#731Open Team0:00:00 0DNF0
SPENCER Justin#734Adult Male0:00:00 0DNF0